Ship Status Report: callsign TAMOURE

sailwx.info

Track history (hours):
 
Tides and Currents Weather Stations Pressure Air Temp Water Temp Dewpoint Dewpoint Depression Visibility Wind Speed Wind Dir Waves Ship Positions

Callsign TAMOURE (name unknown)

Last reported at 2017-Nov-24 19:00 UTC. Time now 2017-Nov-25 11:52 UTC.
Position N 15°48' W 026°42'.

Barometer 1013.2 mb

Date/timePositionNaut miles runAvg speedWind from/ knotsBaromVisibWave heightAir tempDewpointWater temp
2017-Nov-24 19:00N 15°48' W 026°42'0 0.0 1013.2
2017-Nov-24 18:00N 15°48' W 026°42'6 6.0 1012.8
2017-Nov-24 17:00N 15°54' W 026°42'6 5.8 1012.3
2017-Nov-24 16:00N 15°54' W 026°36'8 4.2 1012.3
2017-Nov-24 14:00N 16°00' W 026°30'0 0.0 1013.6
2017-Nov-24 13:00N 16°00' W 026°30'6 5.8 1014.4
2017-Nov-24 12:00N 16°00' W 026°24'8 8.3 1015.2
2017-Nov-24 11:00N 16°06' W 026°18'0 0.0 1015.6
2017-Nov-24 10:00N 16°06' W 026°18'8 8.3 1015.2
2017-Nov-24 09:00N 16°12' W 026°12'6 2.9 1014.7
2017-Nov-24 07:00N 16°12' W 026°06'8 8.3 1014.0
2017-Nov-24 06:00N 16°18' W 026°00'8 8.3 1013.9
2017-Nov-24 05:00N 16°24' W 025°54'0 0.0 1014.1
2017-Nov-24 04:00N 16°24' W 025°54'6 6.0 1013.9
2017-Nov-24 03:00N 16°30' W 025°54'6 5.8 1013.9
2017-Nov-24 02:00N 16°30' W 025°48'6 6.0 1014.3
2017-Nov-24 01:00N 16°36' W 025°48'6 5.7 1014.6
2017-Nov-24 00:00N 16°36' W 025°42'0 0.0 1015.4
2017-Nov-23 23:00N 16°36' W 025°42'8 8.3 1015.8
2017-Nov-23 22:00N 16°42' W 025°36'6 5.7
2017-Nov-23 21:00N 16°42' W 025°30'0 0.0 1015.2
2017-Nov-23 20:00N 16°42' W 025°30'6 5.7 1014.9
2017-Nov-23 19:00N 16°42' W 025°24'6 6.0 1014.6
2017-Nov-23 18:00N 16°48' W 025°24'6 5.7 1014.7
2017-Nov-23 17:00N 16°48' W 025°18'0 0.0 1014.5
2017-Nov-23 16:00N 16°48' W 025°18'8 8.3 1014.2
2017-Nov-23 15:00N 16°54' W 025°12'0 0.0 1014.3
2017-Nov-23 14:00N 16°54' W 025°12'6 5.7 1014.4
2017-Nov-23 13:00N 16°54' W 025°06'6 5.7 1014.9
2017-Nov-23 12:00N 16°54' W 025°00'0 0.0 1015.2
2017-Nov-23 11:00N 16°54' W 025°00'  
2017-Nov-14 19:00N 16°54' W 025°00'   1011.3
Track history (hours):
 
Tides and Currents Weather Stations Pressure Air Temp Water Temp Dewpoint Dewpoint Depression Visibility Wind Speed Wind Dir Waves Ship Positions

Callsign TAMOURE (name unknown)

Last reported at 2017-Nov-24 19:00 UTC. Time now 2017-Nov-25 11:52 UTC.
Position N 15°48' W 026°42'.

Barometer 1013.2 mb

Date/timePositionNaut miles runAvg speedWind from/ knotsBaromVisibWave heightAir tempDewpointWater temp
2017-Nov-24 19:00N 15°48' W 026°42'0 0.0 1013.2
2017-Nov-24 18:00N 15°48' W 026°42'6 6.0 1012.8
2017-Nov-24 17:00N 15°54' W 026°42'6 5.8 1012.3
2017-Nov-24 16:00N 15°54' W 026°36'8 4.2 1012.3
2017-Nov-24 14:00N 16°00' W 026°30'0 0.0 1013.6
2017-Nov-24 13:00N 16°00' W 026°30'6 5.8 1014.4
2017-Nov-24 12:00N 16°00' W 026°24'8 8.3 1015.2
2017-Nov-24 11:00N 16°06' W 026°18'0 0.0 1015.6
2017-Nov-24 10:00N 16°06' W 026°18'8 8.3 1015.2
2017-Nov-24 09:00N 16°12' W 026°12'6 2.9 1014.7
2017-Nov-24 07:00N 16°12' W 026°06'8 8.3 1014.0
2017-Nov-24 06:00N 16°18' W 026°00'8 8.3 1013.9
2017-Nov-24 05:00N 16°24' W 025°54'0 0.0 1014.1
2017-Nov-24 04:00N 16°24' W 025°54'6 6.0 1013.9
2017-Nov-24 03:00N 16°30' W 025°54'6 5.8 1013.9
2017-Nov-24 02:00N 16°30' W 025°48'6 6.0 1014.3
2017-Nov-24 01:00N 16°36' W 025°48'6 5.7 1014.6
2017-Nov-24 00:00N 16°36' W 025°42'0 0.0 1015.4
2017-Nov-23 23:00N 16°36' W 025°42'8 8.3 1015.8
2017-Nov-23 22:00N 16°42' W 025°36'6 5.7
2017-Nov-23 21:00N 16°42' W 025°30'0 0.0 1015.2
2017-Nov-23 20:00N 16°42' W 025°30'6 5.7 1014.9
2017-Nov-23 19:00N 16°42' W 025°24'6 6.0 1014.6
2017-Nov-23 18:00N 16°48' W 025°24'6 5.7 1014.7
2017-Nov-23 17:00N 16°48' W 025°18'0 0.0 1014.5
2017-Nov-23 16:00N 16°48' W 025°18'8 8.3 1014.2
2017-Nov-23 15:00N 16°54' W 025°12'0 0.0 1014.3
2017-Nov-23 14:00N 16°54' W 025°12'6 5.7 1014.4
2017-Nov-23 13:00N 16°54' W 025°06'6 5.7 1014.9
2017-Nov-23 12:00N 16°54' W 025°00'0 0.0 1015.2
2017-Nov-23 11:00N 16°54' W 025°00'  
2017-Nov-14 19:00N 16°54' W 025°00'   1011.3

Dump ship's entire track history